Locarno-Magadino, Switzerland
Current Conditions -  °F | °C
As of 9:20 PM on Saturday 25 Oct 2014 (Local Time) from LSZA Reporting Station
Broken Clouds Broken Clouds  
Wind Chill: 54°   Ceiling: 11000
Heat Index: 54°   Visibility: 6mi
Dew Point: 50°   Wind: 2mph
Humidity: 88%   Direction: 10°N
Pressure: 30.18"   Gusts: NA
Location:  46.15°N, 8.86°E
Report Text: LSZA 251920Z 01002KT 9999 FEW035 BKN110 12/10 Q1022 NOSIG
Loading
Personal Weather Stations






























Interactive Weather Map
Tropical Storm Tracking
New forecast layout! Learn more

10-Day Weather Forecast

Advertisements
Track Severe Weather on mobile